[source: ADDS]
METAR
EDVE 060050Z AUTO 11003KT 080V150 7000 // NCD 12/11 Q1006

TAF EDVE 051700Z 0518/0521 13004KT 9999 FEW040 EDDV 060050Z 11004KT CAVOK 14/13 Q1005

TAF EDDV 052300Z 0600/0624 10004KT 9999 FEW040 TEMPO 0600/0606 2500 BCFG PROB30 TEMPO 0600/0605 0600 FG BKN002 BECMG 0606/0608 16009KT TEMPO 0610/0619 SHRA BKN015CB PROB30 TEMPO 0611/0618 20015G25KT 4000 TSRA BECMG 0614/0616 22008KT ETHS 060020Z AUTO 11005KT 6000 // ////// 12/12 Q1006 ///

TAF ETHS 051319Z 0514/0523 11005KT 9999 NSW FEW030 BKN100 TEMPO 0514/0520 VRB12G25KT 2000 TSRA SCT005 BKN012CB ETHC 060020Z 08005KT 9999 14/13 Q1005 BLU+

TAF ETHC 051322Z 0514/0523 10008KT 9999 NSW SCT035 BKN090 TEMPO 0514/0518 12012KT 5000 SHRA SCT020 BKN035CB PROB30 0514/0517 VRB15G30KT 2000 TSRA SCT012 BKN020CB EDVK 051920Z 17009KT 9999 VCSH FEW023 SCT035CB 16/12 Q1008

TAF EDVK 051700Z 0518/0603 16005KT 9999 BKN025 PROB30 TEMPO 0518/0521 4000 TSRA BKN020CB PROB30 TEMPO 0522/0524 0500 FG BKN001
TAF
TAF EDVE 051700Z 0518/0521 13004KT 9999 FEW040

TAF EDDV 052300Z 0600/0624 10004KT 9999 FEW040 TEMPO 0600/0606 2500 BCFG PROB30 TEMPO 0600/0605 0600 FG BKN002 BECMG 0606/0608 16009KT TEMPO 0610/0619 SHRA BKN015CB PROB30 TEMPO 0611/0618 20015G25KT 4000 TSRA BECMG 0614/0616 22008KT

TAF ETHS 051319Z 0514/0523 11005KT 9999 NSW FEW030 BKN100 TEMPO 0514/0520 VRB12G25KT 2000 TSRA SCT005 BKN012CB

TAF ETHC 051322Z 0514/0523 10008KT 9999 NSW SCT035 BKN090 TEMPO 0514/0518 12012KT 5000 SHRA SCT020 BKN035CB PROB30 0514/0517 VRB15G30KT 2000 TSRA SCT012 BKN020CB

TAF EDVK 051700Z 0518/0603 16005KT 9999 BKN025 PROB30 TEMPO 0518/0521 4000 TSRA BKN020CB PROB30 TEMPO 0522/0524 0500 FG BKN001

SR / SS: 03:47 / 19:00 UTC (EDVE 2021-08-06)
Herzlich willkommen bei der FFG, Marc! Viel Spaß und Erfolg bei deiner Ausbildung! +++ Felix hat seine praktische PPL-Prüfung bestanden! Herzlichen Glückwunsch und always Happy Landings! +++ Wir gratulieren Thiago zum ersten Soloflug! Herzlichen Glückwunsch und weiterhin Happy Landings! +++ Wir heißen Hendrik und Alexander als neue Flugschüler willkommen und wünschen eine erfolgreiche Ausbildung! +++ Patrick hat seine praktische PPL-Prüfung bestanden! Gratulation und weiterhin Happy Landings! +++ Sebastian hat seine praktische PPL-Prüfung bestanden! Herzlichen Glückwunsch und weiterhin Happy Landings! +++ Herzlich willkommen bei der FFG, Udo! Wir wünschen Dir viel Spass und always Happy Landings! +++ Wir haben neue BZF-1 Inhaber. Glückwunsch Fabrizio, Karsten und Thiago! +++ Und der nächste Solist: Herzlichen Glückwunsch Holger und weiterhin Happy Landings!

Webcam Wetter am Flughafen Braunschweig-Wolfsburg Richtung Norden. Das Bild wird alle 60 Sekunden aktualisiert.

Neues Bild in 60 Sekunden

Letztes NOTAM EDVE
von 18.08.2021 0800Z bis 20.08.2021 1000Z
HEHLINGEN DVOR/DME HLZ 117.3MHZ/CH120X ON MAINT, DO NOT USE, FALSE INDICATIONS POSS.

Letztes NOTAM EDBC
von 16.07.2021 0618Z bis 16.10.2021 2359Z
AD CLSD.

Letztes NOTAM EDVM
von 02.08.2021 0805Z bis 02.09.2021 1200Z
CRANE 700M SW ARP, ELEV 415FT/120FT AGL. NOT MARKED.

Letztes NOTAM EDOV
von 07.08.2021 0342Z bis 29.08.2021 1808Z
DAILY SR-SS
HEAVY GLIDER ACTIVITY AND FLIGHT TEST ACTIVITY, 20NM RADIUS CENTERED STENDAL-BORSTEL.
GND- FL095

Letztes NOTAM EDDV
von 04.08.2021 0151Z bis 30.09.2021 1000Z
CONSTRUCTION WORK WITH VEHICLES 15M W OF THR RWY 27L AND 190M S OF CENTERLINE RWY 27L WITH A HEIGHT UP TO 8M ABOVE GND.

Letztes NOTAM EDVK
von 31.07.2021 0554Z bis 31.08.2021 2159Z
COVID-19: FUEL SVC AVBL 0700-1300. OTHER TIMES O/R. FUEL SVC AFTER REQ IS MAX AVBL. UNTIL 1800. REQ MUST BE SUBMITTED BTN 0700-1700. P [more]